createdAt,value
2022-08-02T00:01:19.101Z,2.10
2022-08-02T00:03:45.945Z,2.07
2022-08-02T00:06:12.854Z,1.93
2022-08-02T00:08:39.545Z,1.80
2022-08-02T00:11:06.328Z,1.90
2022-08-02T00:13:33.425Z,2.37
2022-08-02T00:16:00.531Z,2.00
2022-08-02T00:18:27.512Z,1.67
2022-08-02T00:20:54.433Z,2.50
2022-08-02T00:23:21.290Z,2.20
2022-08-02T00:25:54.341Z,2.17
2022-08-02T00:28:27.756Z,2.10
2022-08-02T00:30:56.974Z,2.00
2022-08-02T00:34:09.120Z,2.10
2022-08-02T00:36:10.813Z,1.97
2022-08-02T00:38:38.022Z,2.00
2022-08-02T00:41:11.975Z,2.50
2022-08-02T00:43:38.788Z,2.03
2022-08-02T00:46:05.545Z,2.00
2022-08-02T00:48:32.246Z,2.10
2022-08-02T00:50:59.196Z,2.00
2022-08-02T00:53:25.986Z,1.90
2022-08-02T00:55:53.817Z,2.10
2022-08-02T00:58:20.987Z,2.00
2022-08-02T01:00:47.949Z,2.43
2022-08-02T01:03:14.692Z,2.10
2022-08-02T01:06:02.407Z,1.90
2022-08-02T01:08:29.381Z,2.30
2022-08-02T01:10:58.523Z,2.03
2022-08-02T01:13:26.225Z,2.00
2022-08-02T01:16:09.100Z,2.43
2022-08-02T01:18:39.374Z,2.13
2022-08-02T01:21:30.561Z,2.50
2022-08-02T01:24:31.950Z,2.40
2022-08-02T01:27:23.482Z,2.30
2022-08-02T01:29:54.718Z,2.67
2022-08-02T01:32:26.450Z,2.23
2022-08-02T01:34:58.142Z,2.40
2022-08-02T01:37:29.466Z,2.30
2022-08-02T01:40:20.379Z,2.40
2022-08-02T01:42:50.909Z,2.63
2022-08-02T01:45:19.799Z,2.63
2022-08-02T01:47:47.065Z,2.40
2022-08-02T01:50:16.543Z,2.60
2022-08-02T01:52:53.483Z,3.10
2022-08-02T01:55:33.430Z,2.30
2022-08-02T01:58:05.405Z,2.70
2022-08-02T02:00:35.390Z,2.73
2022-08-02T02:03:02.859Z,2.77
2022-08-02T02:05:31.255Z,2.67
2022-08-02T02:07:59.642Z,2.40
2022-08-02T02:10:29.524Z,2.80
2022-08-02T02:12:58.995Z,2.67
2022-08-02T02:15:26.789Z,2.90
2022-08-02T02:18:12.418Z,2.60
2022-08-02T02:20:40.041Z,2.93
2022-08-02T02:23:06.755Z,3.30
2022-08-02T02:25:36.433Z,3.10
2022-08-02T02:28:13.992Z,2.70
2022-08-02T02:30:46.648Z,2.57
2022-08-02T02:33:14.217Z,2.20
2022-08-02T02:35:42.362Z,2.40
2022-08-02T02:38:11.618Z,2.40
2022-08-02T02:40:39.356Z,2.20
2022-08-02T02:43:06.620Z,3.33
2022-08-02T02:45:34.306Z,2.57
2022-08-02T02:48:02.510Z,2.70
2022-08-02T02:50:30.404Z,2.67
2022-08-02T02:52:57.405Z,2.40
2022-08-02T02:55:25.937Z,2.53
2022-08-02T02:57:53.986Z,2.53
2022-08-02T03:00:41.692Z,3.00
2022-08-02T03:03:09.866Z,2.43
2022-08-02T03:05:36.674Z,2.47
2022-08-02T03:08:03.842Z,2.50
2022-08-02T03:10:30.650Z,2.80
2022-08-02T03:13:00.807Z,2.47
2022-08-02T03:15:29.050Z,2.60
2022-08-02T03:17:55.878Z,2.30
2022-08-02T03:20:22.948Z,2.47
2022-08-02T03:22:49.943Z,2.60
2022-08-02T03:25:18.244Z,2.70
2022-08-02T03:27:45.391Z,2.60
2022-08-02T03:30:13.490Z,2.93
2022-08-02T03:32:43.178Z,2.60
2022-08-02T03:35:11.799Z,2.70
2022-08-02T03:37:38.809Z,2.80
2022-08-02T03:40:10.362Z,2.33
2022-08-02T03:42:38.055Z,2.60
2022-08-02T03:45:08.733Z,2.20
2022-08-02T03:47:38.167Z,2.70
2022-08-02T03:50:07.032Z,2.77
2022-08-02T03:52:34.038Z,2.60
2022-08-02T03:55:00.759Z,2.40
2022-08-02T03:57:27.766Z,3.03
2022-08-02T03:59:54.434Z,2.80
2022-08-02T04:02:21.158Z,2.80
2022-08-02T04:04:47.904Z,2.40
2022-08-02T04:07:14.600Z,2.70
2022-08-02T04:10:01.360Z,2.53
2022-08-02T04:12:28.134Z,2.73
2022-08-02T04:14:55.663Z,2.43
2022-08-02T04:17:23.529Z,2.70
2022-08-02T04:19:55.495Z,2.70
2022-08-02T04:22:37.783Z,2.40
2022-08-02T04:25:07.439Z,2.47
2022-08-02T04:27:50.589Z,2.60
2022-08-02T04:30:18.707Z,2.60
2022-08-02T04:32:46.209Z,2.70
2022-08-02T04:35:21.113Z,2.53
2022-08-02T04:38:05.481Z,2.77
2022-08-02T04:40:35.879Z,2.50
2022-08-02T04:43:02.752Z,2.40
2022-08-02T04:45:30.744Z,2.67
2022-08-02T04:48:05.816Z,2.97
2022-08-02T04:50:34.132Z,2.50
2022-08-02T04:53:01.075Z,2.70
2022-08-02T04:55:29.325Z,2.77
2022-08-02T04:58:03.802Z,2.70
2022-08-02T05:00:34.058Z,2.90
2022-08-02T05:03:01.464Z,3.00
2022-08-02T05:05:28.510Z,2.70
2022-08-02T05:07:55.468Z,3.17
2022-08-02T05:10:22.300Z,3.30
2022-08-02T05:12:50.274Z,3.40
2022-08-02T05:15:18.801Z,3.30
2022-08-02T05:17:47.703Z,2.90
2022-08-02T05:20:16.626Z,3.10
2022-08-02T05:22:43.737Z,2.80
2022-08-02T05:25:10.719Z,3.40
2022-08-02T05:27:37.660Z,3.20
2022-08-02T05:30:05.627Z,3.03
2022-08-02T05:32:32.568Z,3.43
2022-08-02T05:35:01.935Z,3.07
2022-08-02T05:37:32.194Z,3.13
2022-08-02T05:40:03.257Z,3.23
2022-08-02T05:42:33.371Z,3.50
2022-08-02T05:45:00.627Z,3.20
2022-08-02T05:47:27.719Z,3.17
2022-08-02T05:49:54.503Z,3.27
2022-08-02T05:52:24.953Z,3.30
2022-08-02T05:55:01.802Z,3.57
2022-08-02T05:57:43.532Z,3.33
2022-08-02T06:00:13.460Z,3.67
2022-08-02T06:02:43.276Z,3.10
2022-08-02T06:05:15.711Z,3.23
2022-08-02T06:07:44.810Z,3.40
2022-08-02T06:10:15.965Z,3.03
2022-08-02T06:12:49.245Z,3.20
2022-08-02T06:15:18.701Z,2.93
2022-08-02T06:17:45.869Z,3.17
2022-08-02T06:20:16.155Z,3.37
2022-08-02T06:22:45.338Z,3.03
2022-08-02T06:25:50.371Z,2.83
2022-08-02T06:28:01.762Z,3.17
2022-08-02T06:30:30.020Z,2.87
2022-08-02T06:32:57.393Z,3.13
2022-08-02T06:35:36.376Z,3.40
2022-08-02T06:38:04.506Z,3.17
2022-08-02T06:40:46.306Z,3.30
2022-08-02T06:43:18.966Z,2.90
2022-08-02T06:45:45.824Z,2.90
2022-08-02T06:48:13.201Z,3.30
2022-08-02T06:50:42.066Z,3.90
2022-08-02T06:53:10.666Z,3.90
2022-08-02T06:55:43.431Z,3.60
2022-08-02T06:58:12.347Z,3.20
2022-08-02T07:00:39.346Z,3.10
2022-08-02T07:03:06.384Z,3.43
2022-08-02T07:05:33.380Z,3.30
2022-08-02T07:08:03.577Z,3.13
2022-08-02T07:10:30.818Z,2.33
2022-08-02T07:12:59.876Z,2.33
2022-08-02T07:15:27.273Z,2.43
2022-08-02T07:17:55.328Z,2.07
2022-08-02T07:20:22.274Z,1.90
2022-08-02T07:22:49.146Z,1.80
2022-08-02T07:25:16.090Z,1.80
2022-08-02T07:27:43.358Z,1.80
2022-08-02T07:30:10.779Z,1.63
2022-08-02T07:32:37.998Z,2.00
2022-08-02T07:35:07.589Z,1.77
2022-08-02T07:37:54.983Z,2.50
2022-08-02T07:40:25.489Z,2.07
2022-08-02T07:42:57.758Z,2.03
2022-08-02T07:45:27.736Z,1.80
2022-08-02T07:47:55.049Z,2.17
2022-08-02T07:50:22.426Z,2.20
2022-08-02T07:52:57.290Z,2.17
2022-08-02T07:55:39.147Z,2.30
2022-08-02T07:58:10.975Z,2.20
2022-08-02T08:00:43.890Z,1.97
2022-08-02T08:03:11.216Z,1.93
2022-08-02T08:05:39.843Z,1.90
2022-08-02T08:08:17.897Z,1.70
2022-08-02T08:10:48.895Z,1.70
2022-08-02T08:13:16.265Z,1.63
2022-08-02T08:19:00.304Z,1.50
2022-08-02T08:24:34.701Z,1.17
2022-08-02T08:27:01.776Z,1.20
2022-08-02T08:29:31.993Z,1.27
2022-08-02T08:31:59.214Z,1.60
2022-08-02T08:34:30.830Z,1.60
2022-08-02T08:36:57.845Z,1.40
2022-08-02T08:39:25.027Z,1.50
2022-08-02T08:41:52.282Z,1.37
2022-08-02T08:44:27.720Z,1.60
2022-08-02T08:47:42.894Z,1.63
2022-08-02T08:53:45.098Z,1.27
2022-08-02T08:56:16.902Z,1.30
2022-08-02T08:58:45.512Z,1.83
2022-08-02T09:01:13.712Z,1.33
2022-08-02T09:04:10.199Z,1.50
2022-08-02T09:06:47.719Z,1.50
2022-08-02T09:09:19.391Z,1.50
2022-08-02T09:11:56.456Z,1.40
2022-08-02T09:17:56.044Z,1.40
2022-08-02T09:20:34.765Z,1.80
2022-08-02T09:23:29.180Z,1.60
2022-08-02T09:26:25.015Z,1.60
2022-08-02T09:29:03.613Z,2.00
2022-08-02T09:31:34.791Z,1.47
2022-08-02T09:34:04.098Z,1.70
2022-08-02T09:36:47.807Z,1.57
2022-08-02T09:39:17.762Z,1.40
2022-08-02T09:41:50.247Z,1.47
2022-08-02T09:47:22.068Z,1.57
2022-08-02T09:50:05.742Z,1.67
2022-08-02T09:52:48.088Z,1.50
2022-08-02T09:55:43.270Z,1.80
2022-08-02T09:58:21.680Z,1.40
2022-08-02T10:00:54.774Z,1.40
2022-08-02T10:03:22.933Z,1.60
2022-08-02T10:05:56.000Z,1.43
2022-08-02T10:08:33.133Z,1.47
2022-08-02T10:11:01.843Z,1.30
2022-08-02T10:13:39.987Z,1.50
2022-08-02T10:16:31.976Z,1.50
2022-08-02T10:19:07.559Z,1.50
2022-08-02T10:21:54.938Z,1.80
2022-08-02T10:24:38.413Z,1.17
2022-08-02T10:27:49.317Z,1.30
2022-08-02T10:30:30.245Z,1.43
2022-08-02T10:33:04.920Z,1.30
2022-08-02T10:35:34.614Z,1.33
2022-08-02T10:40:57.078Z,1.10
2022-08-02T10:43:49.757Z,1.37
2022-08-02T10:46:40.302Z,1.20
2022-08-02T10:49:40.223Z,1.00
2022-08-02T10:52:32.134Z,1.30
2022-08-02T10:55:38.646Z,1.00
2022-08-02T10:58:31.989Z,1.07
2022-08-02T11:01:38.278Z,1.00
2022-08-02T11:04:22.591Z,0.93
2022-08-02T11:07:26.165Z,1.23
2022-08-02T11:09:54.049Z,1.30
2022-08-02T11:12:30.549Z,1.17
2022-08-02T11:15:08.655Z,1.00
2022-08-02T11:17:56.678Z,1.30
2022-08-02T11:20:27.582Z,1.40
2022-08-02T11:22:56.345Z,1.37
2022-08-02T11:25:25.928Z,1.30
2022-08-02T11:27:52.609Z,1.60
2022-08-02T11:30:26.465Z,1.00
2022-08-02T11:32:58.450Z,1.10
2022-08-02T11:35:45.605Z,1.13
2022-08-02T11:38:21.563Z,1.20
2022-08-02T11:40:57.334Z,1.20
2022-08-02T11:43:35.296Z,1.30
2022-08-02T11:46:05.379Z,1.10
2022-08-02T11:48:36.863Z,1.10
2022-08-02T11:51:15.379Z,1.20
2022-08-02T11:53:43.964Z,1.00
2022-08-02T11:56:13.050Z,1.10
2022-08-02T11:58:41.839Z,1.10
2022-08-02T12:01:08.901Z,1.40
2022-08-02T12:03:39.669Z,1.40
2022-08-02T12:06:10.980Z,1.10
2022-08-02T12:08:43.587Z,1.07
2022-08-02T12:11:21.567Z,0.90
2022-08-02T12:13:57.214Z,1.10
2022-08-02T12:17:04.930Z,1.27
2022-08-02T12:20:16.595Z,1.10
2022-08-02T12:22:44.302Z,1.67
2022-08-02T12:25:33.601Z,1.40
2022-08-02T12:28:20.948Z,1.00
2022-08-02T12:30:52.734Z,1.00
2022-08-02T12:33:22.258Z,1.10
2022-08-02T12:35:51.142Z,1.03
2022-08-02T12:38:20.886Z,1.20
2022-08-02T12:40:50.908Z,1.07
2022-08-02T12:43:35.240Z,1.20
2022-08-02T12:46:05.795Z,1.30
2022-08-02T12:51:57.705Z,1.10
2022-08-02T12:54:32.134Z,1.20
2022-08-02T12:57:13.933Z,1.17
2022-08-02T12:59:42.664Z,1.17
2022-08-02T13:02:14.708Z,1.00
2022-08-02T13:04:50.658Z,0.90
2022-08-02T13:07:20.887Z,1.00
2022-08-02T13:09:48.931Z,1.00
2022-08-02T13:12:16.502Z,1.17
2022-08-02T13:14:45.907Z,1.20
2022-08-02T13:17:14.864Z,1.10
2022-08-02T13:19:42.870Z,1.10
2022-08-02T13:22:10.817Z,0.97
2022-08-02T13:24:55.299Z,1.40
2022-08-02T13:27:37.429Z,1.23
2022-08-02T13:30:05.831Z,1.30
2022-08-02T13:32:35.715Z,0.90
2022-08-02T13:35:02.696Z,1.13
2022-08-02T13:37:33.114Z,1.20
2022-08-02T13:40:23.193Z,0.80
2022-08-02T13:42:50.101Z,1.23
2022-08-02T13:45:17.174Z,1.80
2022-08-02T13:48:03.684Z,1.37
2022-08-02T13:50:32.474Z,1.20
2022-08-02T13:52:59.500Z,1.10
2022-08-02T13:56:02.822Z,1.40
2022-08-02T14:01:52.054Z,1.13
2022-08-02T14:04:18.978Z,1.00
2022-08-02T14:06:45.698Z,0.97
2022-08-02T14:09:15.600Z,1.10
2022-08-02T14:11:45.052Z,1.00
2022-08-02T14:14:15.966Z,1.33
2022-08-02T14:16:43.052Z,1.07
2022-08-02T14:19:16.331Z,1.40
2022-08-02T14:22:14.601Z,1.30
2022-08-02T14:24:51.217Z,1.10
2022-08-02T14:28:02.722Z,1.13
2022-08-02T14:31:06.354Z,1.00
2022-08-02T14:33:47.833Z,1.13
2022-08-02T14:36:16.175Z,0.90
2022-08-02T14:38:57.007Z,1.10
2022-08-02T14:41:25.197Z,1.17
2022-08-02T14:44:04.417Z,1.10
2022-08-02T14:46:43.008Z,1.00
2022-08-02T14:49:24.806Z,1.20
2022-08-02T14:52:14.965Z,1.00
2022-08-02T14:55:29.269Z,1.10
2022-08-02T14:58:49.239Z,1.20
2022-08-02T15:01:49.231Z,0.90
2022-08-02T15:04:20.809Z,1.10
2022-08-02T15:06:47.638Z,0.90
2022-08-02T15:09:14.719Z,1.20
2022-08-02T15:11:47.540Z,0.80
2022-08-02T15:14:16.776Z,1.10
2022-08-02T15:16:58.997Z,1.30
2022-08-02T15:19:56.672Z,1.20
2022-08-02T15:22:24.009Z,1.10
2022-08-02T15:28:38.157Z,1.00
2022-08-02T15:31:33.414Z,1.10
2022-08-02T15:34:11.185Z,1.10
2022-08-02T15:36:51.826Z,1.13
2022-08-02T15:39:24.770Z,1.03
2022-08-02T15:41:53.069Z,1.10
2022-08-02T15:44:22.338Z,1.00
2022-08-02T15:46:54.287Z,1.00
2022-08-02T15:49:29.752Z,1.00
2022-08-02T15:52:04.121Z,0.90
2022-08-02T15:54:58.119Z,1.50
2022-08-02T15:58:22.527Z,1.10
2022-08-02T16:01:25.892Z,1.10
2022-08-02T16:04:37.617Z,1.00
2022-08-02T16:07:32.240Z,1.20
2022-08-02T16:10:16.242Z,1.00
2022-08-02T16:12:48.145Z,1.00
2022-08-02T16:15:15.900Z,0.90
2022-08-02T16:18:01.273Z,1.30
2022-08-02T16:20:42.556Z,1.20
2022-08-02T16:23:20.465Z,1.20
2022-08-02T16:26:22.122Z,1.13
2022-08-02T16:29:25.738Z,1.00
2022-08-02T16:32:04.060Z,1.00
2022-08-02T16:35:10.617Z,1.00
2022-08-02T16:37:52.446Z,1.17
2022-08-02T16:40:35.426Z,0.93
2022-08-02T16:43:10.574Z,1.00
2022-08-02T16:45:52.088Z,1.00
2022-08-02T16:48:27.195Z,1.20
2022-08-02T16:51:13.421Z,1.30
2022-08-02T17:00:29.561Z,1.30
2022-08-02T17:06:29.882Z,1.07
2022-08-02T17:10:01.974Z,1.10
2022-08-02T17:12:37.263Z,1.30
2022-08-02T17:16:01.662Z,1.00
2022-08-02T17:18:26.497Z,1.37
2022-08-02T17:20:56.900Z,1.40
2022-08-02T17:24:21.714Z,1.10
2022-08-02T17:27:07.450Z,0.90
2022-08-02T17:33:19.438Z,1.83
2022-08-02T17:36:28.829Z,5.87
2022-08-02T17:42:24.100Z,1.20
2022-08-02T17:45:25.589Z,1.03
2022-08-02T17:48:17.940Z,1.00
2022-08-02T17:52:14.702Z,1.67
2022-08-02T17:54:45.512Z,1.20
2022-08-02T17:58:04.109Z,1.33
2022-08-02T18:01:00.043Z,1.00
2022-08-02T18:04:19.400Z,1.50
2022-08-02T18:07:49.489Z,1.10
2022-08-02T18:13:53.376Z,1.20
2022-08-02T18:16:44.871Z,1.77
2022-08-02T18:19:21.662Z,1.67
2022-08-02T18:21:52.773Z,1.20
2022-08-02T18:27:49.446Z,1.47
2022-08-02T18:30:28.345Z,1.40
2022-08-02T18:33:59.674Z,1.73
2022-08-02T18:36:24.415Z,1.30
2022-08-02T18:43:00.028Z,1.40
2022-08-02T18:46:15.980Z,1.23
2022-08-02T18:48:55.425Z,1.30
2022-08-02T18:51:37.287Z,1.20
2022-08-02T18:54:49.860Z,1.17
2022-08-02T18:58:17.228Z,1.43
2022-08-02T19:01:21.587Z,1.20
2022-08-02T19:04:04.552Z,1.43
2022-08-02T19:06:53.632Z,1.10
2022-08-02T19:09:48.194Z,1.70
2022-08-02T19:12:34.498Z,1.50
2022-08-02T19:22:18.677Z,1.40
2022-08-02T19:24:47.090Z,1.47
2022-08-02T19:27:47.367Z,1.60
2022-08-02T19:30:21.456Z,1.63
2022-08-02T19:32:59.572Z,1.60
2022-08-02T19:35:30.770Z,1.40
2022-08-02T19:38:09.375Z,1.30
2022-08-02T19:40:37.140Z,1.40
2022-08-02T19:44:26.416Z,2.10
2022-08-02T19:45:57.381Z,2.30
2022-08-02T19:48:27.067Z,2.17
2022-08-02T19:51:01.040Z,2.10
2022-08-02T19:53:46.911Z,1.70
2022-08-02T19:56:20.361Z,1.60
2022-08-02T19:58:55.087Z,1.90
2022-08-02T20:01:37.403Z,1.93
2022-08-02T20:04:12.852Z,2.10
2022-08-02T20:06:45.455Z,1.70
2022-08-02T20:09:21.049Z,1.97
2022-08-02T20:11:54.431Z,2.20
2022-08-02T20:14:27.113Z,1.90
2022-08-02T20:16:57.556Z,1.73
2022-08-02T20:19:25.077Z,1.47
2022-08-02T20:22:00.090Z,1.53
2022-08-02T20:24:30.453Z,1.63
2022-08-02T20:26:59.366Z,1.43
2022-08-02T20:29:43.773Z,1.47
2022-08-02T20:32:22.651Z,2.23
2022-08-02T20:34:49.971Z,1.60
2022-08-02T20:38:01.317Z,1.13
2022-08-02T20:40:05.283Z,1.73
2022-08-02T20:42:32.104Z,1.23
2022-08-02T20:45:00.389Z,1.33
2022-08-02T20:47:28.448Z,1.60
2022-08-02T20:50:31.866Z,1.30
2022-08-02T20:53:00.576Z,1.63
2022-08-02T20:55:31.180Z,1.67
2022-08-02T20:58:16.244Z,1.60
2022-08-02T21:00:45.297Z,1.47
2022-08-02T21:03:14.210Z,1.13
2022-08-02T21:05:55.763Z,1.27
2022-08-02T21:08:23.388Z,1.20
2022-08-02T21:10:52.746Z,2.00
2022-08-02T21:13:22.434Z,1.30
2022-08-02T21:15:52.020Z,1.10
2022-08-02T21:18:28.082Z,1.90
2022-08-02T21:21:06.838Z,1.30
2022-08-02T21:23:36.278Z,1.30
2022-08-02T21:26:04.549Z,1.10
2022-08-02T21:28:43.320Z,0.97
2022-08-02T21:31:14.855Z,1.00
2022-08-02T21:34:01.843Z,1.30
2022-08-02T21:36:36.393Z,1.33
2022-08-02T21:39:09.100Z,1.07
2022-08-02T21:41:46.632Z,1.20
2022-08-02T21:44:23.359Z,1.00
2022-08-02T21:46:59.786Z,1.13
2022-08-02T21:50:08.423Z,1.00
2022-08-02T21:52:16.343Z,1.50
2022-08-02T21:54:45.424Z,1.30
2022-08-02T21:57:16.445Z,1.63
2022-08-02T22:00:28.839Z,2.07
2022-08-02T22:03:25.177Z,1.60
2022-08-02T22:06:11.825Z,1.60
2022-08-02T22:08:44.616Z,1.53
2022-08-02T22:11:13.503Z,2.10
2022-08-02T22:13:47.601Z,2.07
2022-08-02T22:16:18.299Z,2.07
2022-08-02T22:18:51.526Z,1.97
2022-08-02T22:21:33.516Z,1.90
2022-08-02T22:24:37.593Z,2.37
2022-08-02T22:27:13.929Z,1.77
2022-08-02T22:30:00.535Z,2.10
2022-08-02T22:33:15.003Z,2.10
2022-08-02T22:36:02.418Z,2.00
2022-08-02T22:38:44.590Z,1.73
2022-08-02T22:41:16.261Z,1.83
2022-08-02T22:43:43.834Z,2.00
2022-08-02T22:46:15.485Z,1.93
2022-08-02T22:48:45.558Z,2.07
2022-08-02T22:51:28.741Z,2.00
2022-08-02T22:54:16.231Z,2.03
2022-08-02T22:58:36.283Z,0.97
2022-08-02T22:58:48.752Z,1.13
2022-08-02T23:01:02.434Z,1.90
2022-08-02T23:07:09.571Z,1.70
2022-08-02T23:09:54.276Z,1.97
2022-08-02T23:12:37.183Z,1.90
2022-08-02T23:15:04.744Z,1.50
2022-08-02T23:17:50.206Z,1.73
2022-08-02T23:20:20.000Z,1.40
2022-08-02T23:22:46.809Z,1.93
2022-08-02T23:25:14.840Z,1.57
2022-08-02T23:27:50.612Z,1.83
2022-08-02T23:30:19.086Z,1.80
2022-08-02T23:32:54.287Z,1.37
2022-08-02T23:35:21.091Z,1.80
2022-08-02T23:37:57.949Z,1.70
2022-08-02T23:40:38.729Z,1.37
2022-08-02T23:43:14.194Z,1.50
2022-08-02T23:45:41.914Z,1.53
2022-08-02T23:48:08.961Z,1.50
2022-08-02T23:50:35.910Z,1.60
2022-08-02T23:53:02.759Z,1.60
2022-08-02T23:55:30.534Z,1.43
2022-08-02T23:57:57.533Z,1.70
